createdAt,value
2017-10-25T00:03:17.344Z,14.17
2017-10-25T00:06:07.030Z,14.18
2017-10-25T00:09:05.112Z,14.26
2017-10-25T00:12:02.976Z,14.24
2017-10-25T00:24:48.647Z,14.30
2017-10-25T00:27:38.405Z,14.28
2017-10-25T00:30:35.432Z,14.30
2017-10-25T00:42:25.093Z,14.30
2017-10-25T00:44:50.859Z,14.28
2017-10-25T00:47:16.735Z,14.22
2017-10-25T00:49:42.504Z,14.23
2017-10-25T00:52:08.256Z,14.30
2017-10-25T00:54:34.040Z,14.33
2017-10-25T00:56:59.788Z,14.31
2017-10-25T00:59:25.559Z,14.35
2017-10-25T01:01:51.359Z,14.35
2017-10-25T01:04:17.119Z,14.34
2017-10-25T01:06:42.899Z,14.42
2017-10-25T01:09:08.667Z,14.32
2017-10-25T01:11:34.437Z,14.22
2017-10-25T01:14:00.224Z,14.11
2017-10-25T01:16:26.015Z,14.02
2017-10-25T01:18:51.827Z,13.92
2017-10-25T01:21:17.611Z,13.84
2017-10-25T01:23:43.408Z,13.77
2017-10-25T01:26:09.168Z,13.75
2017-10-25T01:28:34.956Z,13.77
2017-10-25T01:31:00.796Z,13.78
2017-10-25T01:33:26.556Z,13.77
2017-10-25T01:35:52.335Z,13.73
2017-10-25T01:38:18.098Z,13.74
2017-10-25T01:40:43.867Z,13.70
2017-10-25T01:43:09.741Z,13.71
2017-10-25T01:45:35.515Z,13.76
2017-10-25T01:48:01.266Z,13.83
2017-10-25T01:50:27.063Z,13.84
2017-10-25T01:52:52.825Z,13.89
2017-10-25T01:55:18.805Z,13.85
2017-10-25T01:57:44.571Z,13.87
2017-10-25T02:00:10.347Z,13.89
2017-10-25T02:02:36.159Z,13.93
2017-10-25T02:05:01.952Z,13.94
2017-10-25T02:07:27.699Z,13.92
2017-10-25T02:09:53.515Z,13.91
2017-10-25T02:12:19.282Z,13.88
2017-10-25T02:14:45.082Z,13.82
2017-10-25T02:17:10.845Z,13.82
2017-10-25T02:19:36.697Z,13.83
2017-10-25T02:22:02.514Z,13.76
2017-10-25T02:24:28.291Z,13.76
2017-10-25T02:26:54.042Z,13.74
2017-10-25T02:29:19.819Z,13.75
2017-10-25T02:31:45.577Z,13.78
2017-10-25T02:34:11.334Z,13.80
2017-10-25T02:36:37.082Z,13.82
2017-10-25T02:39:02.868Z,13.85
2017-10-25T02:41:28.623Z,13.87
2017-10-25T02:43:54.391Z,13.89
2017-10-25T02:46:20.195Z,13.91
2017-10-25T02:48:45.963Z,13.86
2017-10-25T02:51:11.727Z,13.82
2017-10-25T02:53:37.475Z,13.79
2017-10-25T02:56:03.323Z,13.82
2017-10-25T02:58:29.080Z,13.81
2017-10-25T03:00:54.830Z,13.75
2017-10-25T03:03:20.683Z,13.73
2017-10-25T03:05:46.432Z,13.73
2017-10-25T03:08:12.195Z,13.69
2017-10-25T03:10:37.935Z,13.71
2017-10-25T03:13:03.723Z,13.67
2017-10-25T03:15:29.502Z,13.63
2017-10-25T03:17:55.250Z,13.63
2017-10-25T03:20:21.031Z,13.57
2017-10-25T03:22:47.079Z,13.58
2017-10-25T03:25:12.854Z,13.60
2017-10-25T03:27:38.627Z,13.51
2017-10-25T03:30:04.388Z,13.49
2017-10-25T03:32:30.146Z,13.42
2017-10-25T03:34:55.928Z,13.42
2017-10-25T03:37:21.709Z,13.36
2017-10-25T03:39:47.459Z,13.28
2017-10-25T03:42:13.222Z,13.24
2017-10-25T03:44:38.979Z,13.19
2017-10-25T03:47:04.724Z,13.16
2017-10-25T03:49:30.503Z,13.12
2017-10-25T03:51:56.256Z,13.16
2017-10-25T03:54:22.008Z,13.17
2017-10-25T03:56:47.777Z,13.21
2017-10-25T03:59:13.528Z,13.23
2017-10-25T04:01:39.318Z,13.24
2017-10-25T04:04:05.072Z,13.24
2017-10-25T04:06:30.853Z,13.26
2017-10-25T04:08:56.643Z,13.31
2017-10-25T04:11:22.435Z,13.26
2017-10-25T04:13:48.190Z,13.33
2017-10-25T04:16:13.981Z,13.34
2017-10-25T04:18:39.741Z,13.28
2017-10-25T04:21:05.499Z,13.26
2017-10-25T04:23:31.379Z,13.24
2017-10-25T04:25:57.196Z,13.20
2017-10-25T04:28:23.015Z,13.19
2017-10-25T04:30:48.793Z,13.17
2017-10-25T04:33:14.598Z,13.18
2017-10-25T04:35:40.346Z,13.24
2017-10-25T04:38:06.092Z,13.24
2017-10-25T04:40:31.879Z,13.24
2017-10-25T04:42:57.657Z,13.28
2017-10-25T04:45:23.443Z,13.26
2017-10-25T04:47:49.206Z,13.20
2017-10-25T04:50:14.974Z,13.13
2017-10-25T04:52:40.736Z,13.06
2017-10-25T04:55:06.491Z,12.99
2017-10-25T04:57:32.280Z,12.98
2017-10-25T04:59:58.035Z,12.91
2017-10-25T05:02:23.800Z,12.95
2017-10-25T05:04:49.569Z,12.89
2017-10-25T05:07:15.303Z,12.86
2017-10-25T05:09:41.087Z,12.77
2017-10-25T05:12:06.859Z,12.76
2017-10-25T05:14:32.627Z,12.81
2017-10-25T05:16:58.413Z,12.76
2017-10-25T05:19:24.169Z,12.82
2017-10-25T05:21:49.912Z,12.85
2017-10-25T05:24:15.703Z,12.85
2017-10-25T05:26:41.447Z,12.81
2017-10-25T05:29:07.222Z,12.85
2017-10-25T05:31:32.995Z,12.63
2017-10-25T05:33:58.752Z,12.50
2017-10-25T05:36:24.529Z,12.50
2017-10-25T05:38:50.307Z,12.57
2017-10-25T05:41:16.067Z,12.57
2017-10-25T05:43:41.832Z,12.59
2017-10-25T05:46:07.595Z,12.54
2017-10-25T05:48:33.387Z,12.60
2017-10-25T05:50:59.189Z,12.65
2017-10-25T05:53:24.964Z,12.74
2017-10-25T05:55:50.719Z,12.74
2017-10-25T05:58:16.484Z,12.67
2017-10-25T06:00:42.259Z,12.71
2017-10-25T06:03:08.007Z,12.75
2017-10-25T06:05:33.750Z,12.82
2017-10-25T06:07:59.532Z,12.82
2017-10-25T06:10:25.303Z,12.81
2017-10-25T06:12:51.160Z,12.88
2017-10-25T06:15:16.979Z,12.92
2017-10-25T06:17:42.735Z,12.98
2017-10-25T06:20:08.510Z,12.99
2017-10-25T06:22:34.503Z,12.92
2017-10-25T06:25:00.319Z,12.97
2017-10-25T06:27:26.067Z,12.98
2017-10-25T06:29:52.316Z,13.00
2017-10-25T06:32:18.076Z,13.04
2017-10-25T06:34:44.113Z,13.03
2017-10-25T06:37:09.891Z,12.98
2017-10-25T06:39:35.669Z,12.94
2017-10-25T06:42:01.427Z,13.01
2017-10-25T06:44:27.211Z,13.06
2017-10-25T06:46:52.988Z,13.03
2017-10-25T06:49:18.765Z,13.01
2017-10-25T06:51:44.555Z,13.05
2017-10-25T06:54:10.336Z,13.04
2017-10-25T06:56:36.115Z,13.09
2017-10-25T06:59:01.887Z,13.11
2017-10-25T07:01:27.631Z,13.13
2017-10-25T07:03:53.388Z,13.12
2017-10-25T07:06:19.150Z,13.16
2017-10-25T07:08:44.919Z,13.20
2017-10-25T07:11:10.675Z,13.25
2017-10-25T07:13:36.441Z,13.18
2017-10-25T07:16:02.196Z,13.31
2017-10-25T07:18:28.859Z,13.39
2017-10-25T07:20:54.642Z,13.46
2017-10-25T07:23:20.458Z,13.44
2017-10-25T07:25:46.232Z,13.52
2017-10-25T07:28:11.972Z,13.61
2017-10-25T07:30:37.755Z,13.62
2017-10-25T07:33:03.510Z,13.85
2017-10-25T07:35:29.276Z,14.10
2017-10-25T07:37:55.064Z,14.26
2017-10-25T07:40:20.896Z,14.55
2017-10-25T07:42:46.659Z,14.71
2017-10-25T07:45:12.428Z,14.88
2017-10-25T07:47:38.166Z,15.02
2017-10-25T07:50:03.948Z,15.24
2017-10-25T07:52:29.772Z,15.13
2017-10-25T07:54:55.511Z,15.17
2017-10-25T07:57:21.287Z,15.15
2017-10-25T07:59:47.019Z,14.86
2017-10-25T08:02:12.782Z,14.82
2017-10-25T08:04:38.557Z,14.81
2017-10-25T08:07:04.319Z,14.74
2017-10-25T08:09:30.667Z,14.89
2017-10-25T08:11:56.443Z,15.18
2017-10-25T08:14:22.180Z,15.42
2017-10-25T08:16:47.927Z,15.62
2017-10-25T08:19:13.691Z,15.64
2017-10-25T08:21:39.435Z,15.68
2017-10-25T08:24:05.207Z,15.62
2017-10-25T08:26:30.948Z,15.60
2017-10-25T08:28:56.763Z,15.51
2017-10-25T08:31:22.505Z,15.64
2017-10-25T08:33:48.251Z,15.65
2017-10-25T08:36:14.037Z,15.57
2017-10-25T08:38:39.793Z,15.55
2017-10-25T08:41:05.578Z,15.48
2017-10-25T08:43:31.332Z,15.47
2017-10-25T08:45:57.343Z,15.44
2017-10-25T08:48:23.134Z,15.54
2017-10-25T08:50:48.889Z,15.58
2017-10-25T08:53:14.663Z,15.80
2017-10-25T08:55:40.443Z,15.96
2017-10-25T08:58:06.243Z,16.09
2017-10-25T09:00:32.027Z,16.23
2017-10-25T09:02:57.803Z,16.38
2017-10-25T09:05:23.571Z,16.36
2017-10-25T09:07:49.418Z,16.10
2017-10-25T09:10:15.196Z,16.19
2017-10-25T09:12:40.975Z,17.19
2017-10-25T09:15:06.747Z,18.36
2017-10-25T09:17:32.515Z,19.58
2017-10-25T09:19:58.293Z,20.35
2017-10-25T09:22:24.070Z,20.50
2017-10-25T09:24:49.819Z,20.54
2017-10-25T09:27:15.588Z,21.28
2017-10-25T09:29:41.372Z,22.14
2017-10-25T09:32:07.114Z,22.54
2017-10-25T09:34:32.890Z,22.79
2017-10-25T09:36:58.635Z,21.74
2017-10-25T09:39:24.399Z,21.11
2017-10-25T09:41:50.187Z,20.87
2017-10-25T09:44:15.931Z,20.21
2017-10-25T09:46:41.674Z,19.68
2017-10-25T09:49:07.663Z,19.10
2017-10-25T09:51:33.407Z,18.88
2017-10-25T09:53:59.178Z,18.74
2017-10-25T09:56:24.949Z,18.82
2017-10-25T09:58:50.716Z,19.36
2017-10-25T10:01:16.498Z,20.67
2017-10-25T10:03:42.259Z,21.77
2017-10-25T10:06:08.019Z,22.49
2017-10-25T10:08:33.786Z,22.49
2017-10-25T10:10:59.566Z,22.37
2017-10-25T10:13:25.338Z,21.91
2017-10-25T10:15:51.129Z,22.44
2017-10-25T10:18:16.880Z,23.18
2017-10-25T10:20:42.651Z,23.67
2017-10-25T10:23:08.433Z,24.36
2017-10-25T10:25:34.224Z,24.83
2017-10-25T10:27:59.983Z,23.84
2017-10-25T10:30:25.755Z,23.20
2017-10-25T10:32:51.560Z,23.00
2017-10-25T10:35:17.332Z,23.66
2017-10-25T10:37:43.096Z,23.95
2017-10-25T10:40:08.875Z,23.90
2017-10-25T10:42:34.659Z,23.94
2017-10-25T10:45:00.451Z,24.23
2017-10-25T10:47:26.223Z,24.32
2017-10-25T10:49:51.987Z,24.18
2017-10-25T10:52:17.742Z,23.89
2017-10-25T10:54:43.507Z,22.92
2017-10-25T10:57:09.269Z,22.88
2017-10-25T10:59:35.039Z,22.99
2017-10-25T11:02:00.805Z,23.32
2017-10-25T11:04:26.585Z,23.19
2017-10-25T11:06:52.343Z,22.78
2017-10-25T11:09:18.119Z,23.12
2017-10-25T11:11:43.895Z,22.79
2017-10-25T11:14:09.698Z,22.67
2017-10-25T11:16:35.463Z,23.42
2017-10-25T11:19:01.273Z,24.76
2017-10-25T11:21:27.023Z,25.70
2017-10-25T11:23:52.763Z,26.12
2017-10-25T11:26:18.535Z,26.39
2017-10-25T11:28:44.306Z,26.58
2017-10-25T11:31:10.071Z,27.02
2017-10-25T11:33:35.817Z,27.31
2017-10-25T11:36:01.583Z,27.41
2017-10-25T11:38:27.363Z,27.38
2017-10-25T11:40:53.126Z,27.38
2017-10-25T11:43:18.879Z,26.55
2017-10-25T11:45:44.672Z,26.18
2017-10-25T11:48:10.431Z,25.77
2017-10-25T11:50:36.208Z,25.40
2017-10-25T11:53:01.994Z,25.29
2017-10-25T11:55:27.778Z,25.49
2017-10-25T11:57:53.531Z,25.98
2017-10-25T12:00:19.332Z,26.13
2017-10-25T12:02:45.084Z,25.88
2017-10-25T12:05:10.839Z,25.66
2017-10-25T12:07:36.609Z,26.12
2017-10-25T12:10:02.399Z,26.02
2017-10-25T12:12:28.203Z,25.97
2017-10-25T12:14:54.911Z,26.06
2017-10-25T12:17:20.673Z,26.48
2017-10-25T12:19:46.451Z,26.64
2017-10-25T12:22:12.241Z,26.89
2017-10-25T12:24:37.996Z,27.45
2017-10-25T12:27:03.755Z,27.35
2017-10-25T12:29:29.525Z,26.72
2017-10-25T12:31:55.266Z,26.22
2017-10-25T12:34:21.063Z,25.65
2017-10-25T12:36:46.855Z,26.40
2017-10-25T12:39:12.639Z,26.40
2017-10-25T12:41:38.420Z,26.41
2017-10-25T12:44:04.171Z,26.93
2017-10-25T12:46:29.935Z,27.35
2017-10-25T12:48:55.695Z,27.68
2017-10-25T12:51:21.483Z,27.95
2017-10-25T12:53:47.220Z,27.45
2017-10-25T12:56:13.003Z,27.50
2017-10-25T12:58:38.779Z,27.28
2017-10-25T13:01:04.539Z,26.49
2017-10-25T13:03:30.302Z,26.32
2017-10-25T13:05:56.075Z,25.96
2017-10-25T13:08:21.828Z,25.77
2017-10-25T13:11:09.596Z,25.60
2017-10-25T13:14:01.111Z,25.51
2017-10-25T13:16:39.200Z,25.05
2017-10-25T13:19:04.952Z,24.84
2017-10-25T13:21:30.747Z,25.10
2017-10-25T13:23:56.511Z,24.86
2017-10-25T13:26:22.285Z,24.46
2017-10-25T13:28:48.047Z,24.45
2017-10-25T13:31:13.798Z,24.10
2017-10-25T13:33:39.574Z,23.83
2017-10-25T13:36:05.334Z,23.72
2017-10-25T13:38:31.087Z,23.37
2017-10-25T13:40:56.867Z,23.26
2017-10-25T13:43:22.619Z,23.09
2017-10-25T13:45:48.388Z,23.15
2017-10-25T13:48:14.163Z,23.21
2017-10-25T13:50:39.916Z,22.89
2017-10-25T13:53:05.712Z,22.54
2017-10-25T13:55:31.451Z,22.18
2017-10-25T13:57:57.233Z,22.00
2017-10-25T14:00:22.996Z,21.97
2017-10-25T14:02:48.764Z,22.00
2017-10-25T14:05:14.564Z,22.11
2017-10-25T14:07:40.303Z,22.18
2017-10-25T14:10:06.092Z,21.98
2017-10-25T14:12:31.847Z,21.77
2017-10-25T14:14:57.649Z,21.87
2017-10-25T14:17:23.436Z,22.13
2017-10-25T14:19:49.221Z,22.40
2017-10-25T14:22:15.030Z,22.54
2017-10-25T14:24:40.793Z,22.69
2017-10-25T14:27:18.866Z,22.52
2017-10-25T14:29:44.631Z,22.26
2017-10-25T14:32:10.403Z,22.43
2017-10-25T14:34:36.175Z,22.63
2017-10-25T14:37:01.931Z,22.75
2017-10-25T14:39:27.698Z,22.64
2017-10-25T14:41:53.444Z,22.45
2017-10-25T14:44:19.248Z,22.15
2017-10-25T14:46:45.011Z,22.09
2017-10-25T14:49:10.803Z,22.17
2017-10-25T14:51:36.575Z,21.94
2017-10-25T14:54:02.343Z,21.67
2017-10-25T14:56:28.116Z,21.50
2017-10-25T14:58:53.886Z,21.22
2017-10-25T15:01:19.644Z,21.02
2017-10-25T15:03:45.420Z,20.85
2017-10-25T15:06:11.183Z,20.80
2017-10-25T15:08:36.947Z,20.83
2017-10-25T15:11:03.015Z,20.89
2017-10-25T15:13:28.799Z,20.89
2017-10-25T15:15:54.578Z,20.83
2017-10-25T15:18:20.351Z,20.69
2017-10-25T15:20:46.120Z,20.67
2017-10-25T15:23:11.923Z,20.61
2017-10-25T15:25:37.659Z,20.78
2017-10-25T15:28:03.435Z,20.86
2017-10-25T15:30:29.195Z,20.87
2017-10-25T15:32:54.986Z,20.79
2017-10-25T15:35:20.742Z,20.86
2017-10-25T15:37:46.502Z,20.88
2017-10-25T15:40:12.280Z,20.98
2017-10-25T15:42:38.072Z,21.32
2017-10-25T15:45:03.835Z,21.48
2017-10-25T15:47:29.630Z,21.41
2017-10-25T15:49:55.394Z,21.29
2017-10-25T15:52:21.159Z,21.11
2017-10-25T15:54:46.972Z,20.75
2017-10-25T15:57:12.731Z,20.54
2017-10-25T15:59:38.486Z,20.25
2017-10-25T16:02:04.266Z,19.75
2017-10-25T16:04:30.031Z,19.36
2017-10-25T16:06:55.789Z,19.15
2017-10-25T16:09:21.591Z,19.02
2017-10-25T16:11:47.342Z,18.82
2017-10-25T16:14:13.116Z,18.38
2017-10-25T16:16:38.896Z,18.30
2017-10-25T16:19:04.659Z,18.21
2017-10-25T16:21:30.419Z,18.18
2017-10-25T16:23:56.199Z,18.22
2017-10-25T16:26:21.952Z,18.27
2017-10-25T16:28:47.726Z,18.16
2017-10-25T16:31:13.487Z,18.13
2017-10-25T16:33:39.307Z,18.02
2017-10-25T16:36:05.055Z,18.05
2017-10-25T16:38:30.799Z,17.96
2017-10-25T16:40:56.571Z,17.85
2017-10-25T16:43:22.363Z,17.73
2017-10-25T16:45:48.160Z,17.70
2017-10-25T16:48:13.943Z,17.69
2017-10-25T16:50:39.720Z,17.53
2017-10-25T16:53:05.488Z,17.46
2017-10-25T16:55:31.268Z,17.40
2017-10-25T16:57:57.047Z,17.35
2017-10-25T17:00:22.855Z,17.28
2017-10-25T17:02:48.594Z,17.13
2017-10-25T17:05:14.364Z,17.13
2017-10-25T17:07:40.138Z,17.09
2017-10-25T17:10:05.891Z,16.98
2017-10-25T17:12:31.675Z,16.89
2017-10-25T17:14:57.422Z,16.80
2017-10-25T17:17:23.202Z,16.78
2017-10-25T17:19:48.956Z,16.77
2017-10-25T17:22:14.755Z,16.69
2017-10-25T17:24:40.534Z,16.68
2017-10-25T17:27:06.315Z,16.52
2017-10-25T17:29:32.083Z,16.40
2017-10-25T17:31:57.831Z,16.33
2017-10-25T17:34:23.611Z,16.22
2017-10-25T17:36:49.360Z,16.26
2017-10-25T17:39:15.106Z,16.22
2017-10-25T17:41:40.882Z,16.23
2017-10-25T17:44:06.646Z,16.18
2017-10-25T17:46:32.410Z,16.11
2017-10-25T17:48:58.182Z,16.04
2017-10-25T17:51:23.950Z,16.06
2017-10-25T17:53:49.720Z,16.01
2017-10-25T17:56:15.490Z,16.02
2017-10-25T17:58:41.294Z,15.96
2017-10-25T18:01:07.061Z,15.86
2017-10-25T18:03:32.824Z,15.87
2017-10-25T18:05:58.606Z,15.82
2017-10-25T18:08:24.360Z,15.84
2017-10-25T18:10:50.123Z,15.86
2017-10-25T18:13:15.911Z,15.79
2017-10-25T18:15:41.671Z,15.85
2017-10-25T18:18:07.436Z,15.90
2017-10-25T18:20:33.195Z,15.94
2017-10-25T18:22:58.991Z,15.99
2017-10-25T18:25:24.804Z,15.99
2017-10-25T18:27:50.559Z,15.96
2017-10-25T18:30:16.339Z,15.99
2017-10-25T18:32:42.087Z,16.00
2017-10-25T18:35:07.881Z,16.04
2017-10-25T18:37:33.659Z,15.89
2017-10-25T18:39:59.429Z,15.76
2017-10-25T18:42:25.200Z,15.84
2017-10-25T18:44:50.946Z,15.88
2017-10-25T18:47:16.723Z,15.89
2017-10-25T18:49:42.474Z,15.92
2017-10-25T18:52:08.219Z,15.87
2017-10-25T18:54:34.027Z,15.78
2017-10-25T18:56:59.775Z,15.74
2017-10-25T18:59:25.549Z,15.73
2017-10-25T19:01:51.316Z,15.75
2017-10-25T19:04:17.074Z,15.67
2017-10-25T19:06:42.853Z,15.62
2017-10-25T19:09:08.643Z,15.64
2017-10-25T19:11:34.384Z,15.69
2017-10-25T19:14:00.135Z,15.70
2017-10-25T19:16:25.914Z,15.73
2017-10-25T19:18:51.673Z,15.80
2017-10-25T19:21:17.443Z,15.83
2017-10-25T19:23:43.212Z,15.84
2017-10-25T19:26:09.038Z,15.92
2017-10-25T19:28:34.805Z,15.90
2017-10-25T19:31:00.546Z,15.94
2017-10-25T19:33:26.329Z,15.87
2017-10-25T19:35:52.079Z,15.89
2017-10-25T19:38:17.870Z,15.94
2017-10-25T19:40:43.667Z,15.89
2017-10-25T19:43:09.412Z,15.90
2017-10-25T19:45:35.191Z,15.95
2017-10-25T19:48:00.986Z,15.91
2017-10-25T19:50:26.779Z,15.89
2017-10-25T19:52:52.526Z,15.91
2017-10-25T19:55:18.316Z,15.81
2017-10-25T19:57:44.103Z,15.85
2017-10-25T20:00:09.872Z,15.82
2017-10-25T20:02:35.643Z,15.71
2017-10-25T20:05:01.430Z,15.78
2017-10-25T20:07:27.209Z,15.85
2017-10-25T20:09:52.977Z,15.96
2017-10-25T20:12:18.759Z,16.06
2017-10-25T20:14:44.516Z,16.10
2017-10-25T20:17:10.286Z,16.15
2017-10-25T20:19:36.047Z,16.23
2017-10-25T20:22:01.873Z,16.17
2017-10-25T20:24:27.631Z,16.19
2017-10-25T20:26:53.407Z,16.21
2017-10-25T20:29:19.302Z,16.23
2017-10-25T20:31:45.083Z,16.20
2017-10-25T20:34:10.855Z,16.13
2017-10-25T20:36:36.709Z,16.13
2017-10-25T20:39:02.520Z,16.22
2017-10-25T20:41:28.312Z,16.25
2017-10-25T20:43:54.104Z,16.23
2017-10-25T20:46:19.844Z,16.15
2017-10-25T20:48:45.607Z,16.08
2017-10-25T20:51:11.413Z,16.04
2017-10-25T20:53:37.203Z,16.03
2017-10-25T20:56:02.956Z,16.04
2017-10-25T20:58:28.795Z,16.09
2017-10-25T21:00:54.583Z,16.12
2017-10-25T21:03:20.332Z,16.10
2017-10-25T21:05:46.084Z,16.17
2017-10-25T21:08:11.855Z,16.20
2017-10-25T21:10:37.602Z,16.22
2017-10-25T21:13:03.435Z,16.26
2017-10-25T21:15:29.255Z,16.28
2017-10-25T21:17:55.011Z,16.31
2017-10-25T21:20:20.786Z,16.30
2017-10-25T21:22:46.975Z,16.30
2017-10-25T21:25:12.731Z,16.26
2017-10-25T21:27:38.503Z,16.16
2017-10-25T21:30:04.255Z,16.04
2017-10-25T21:32:30.031Z,16.11
2017-10-25T21:34:55.767Z,16.12
2017-10-25T21:37:21.517Z,16.08
2017-10-25T21:39:47.345Z,16.13
2017-10-25T21:42:13.096Z,16.14
2017-10-25T21:44:38.883Z,16.10
2017-10-25T21:47:04.635Z,16.16
2017-10-25T21:49:30.407Z,16.14
2017-10-25T21:51:56.155Z,16.13
2017-10-25T21:54:21.939Z,16.15
2017-10-25T21:56:47.676Z,16.08
2017-10-25T21:59:13.442Z,16.02
2017-10-25T22:01:39.201Z,16.05
2017-10-25T22:04:05.070Z,15.95
2017-10-25T22:06:30.828Z,15.95
2017-10-25T22:08:56.569Z,15.99
2017-10-25T22:11:22.340Z,15.94
2017-10-25T22:13:48.083Z,15.89
2017-10-25T22:16:13.847Z,15.90
2017-10-25T22:18:39.587Z,15.94
2017-10-25T22:21:05.457Z,15.92
2017-10-25T22:23:31.206Z,15.85
2017-10-25T22:25:56.952Z,15.90
2017-10-25T22:28:22.742Z,15.88
2017-10-25T22:30:48.480Z,15.84
2017-10-25T22:33:14.342Z,15.81
2017-10-25T22:35:40.119Z,15.86
2017-10-25T22:38:05.848Z,15.82
2017-10-25T22:40:31.591Z,15.75
2017-10-25T22:42:57.350Z,15.77
2017-10-25T22:45:23.171Z,15.82
2017-10-25T22:47:48.936Z,15.81
2017-10-25T22:50:14.683Z,15.85
2017-10-25T22:52:40.442Z,15.82
2017-10-25T22:55:06.196Z,15.81
2017-10-25T22:57:31.951Z,15.87
2017-10-25T22:59:57.686Z,15.90
2017-10-25T23:02:23.495Z,15.89
2017-10-25T23:04:49.243Z,15.92
2017-10-25T23:07:14.999Z,15.90
2017-10-25T23:09:40.769Z,15.90
2017-10-25T23:12:06.523Z,15.79
2017-10-25T23:14:32.302Z,15.72
2017-10-25T23:16:58.040Z,15.75
2017-10-25T23:19:23.775Z,15.83
2017-10-25T23:21:49.539Z,15.87
2017-10-25T23:24:15.322Z,15.85
2017-10-25T23:26:41.179Z,15.72
2017-10-25T23:29:06.927Z,15.69
2017-10-25T23:31:32.687Z,15.61
2017-10-25T23:33:58.437Z,15.59
2017-10-25T23:36:24.222Z,15.59
2017-10-25T23:38:49.983Z,15.57
2017-10-25T23:41:15.758Z,15.57
2017-10-25T23:43:41.534Z,15.50
2017-10-25T23:46:07.291Z,15.40
2017-10-25T23:48:33.036Z,15.38
2017-10-25T23:50:58.824Z,15.33
2017-10-25T23:53:24.576Z,15.30
2017-10-25T23:55:50.343Z,15.25
2017-10-25T23:58:16.227Z,15.23
